createdAt,value
2023-05-18T00:00:54.984Z,79.79
2023-05-18T00:03:21.435Z,78.97
2023-05-18T00:05:48.580Z,80.22
2023-05-18T00:08:14.887Z,80.23
2023-05-18T00:10:41.783Z,83.00
2023-05-18T00:13:08.313Z,81.24
2023-05-18T00:15:34.435Z,82.74
2023-05-18T00:18:00.594Z,81.51
2023-05-18T00:20:26.848Z,81.62
2023-05-18T00:22:53.207Z,84.05
2023-05-18T00:25:19.450Z,82.36
2023-05-18T00:27:46.066Z,80.79
2023-05-18T00:30:12.797Z,81.77
2023-05-18T00:32:39.013Z,81.62
2023-05-18T00:35:05.785Z,83.02
2023-05-18T00:37:31.948Z,87.30
2023-05-18T00:39:58.086Z,87.72
2023-05-18T00:42:24.222Z,84.48
2023-05-18T00:44:50.382Z,82.14
2023-05-18T00:47:17.791Z,82.86
2023-05-18T00:49:43.956Z,82.59
2023-05-18T00:52:10.087Z,84.47
2023-05-18T00:54:36.379Z,83.42
2023-05-18T00:57:03.477Z,83.97
2023-05-18T00:59:30.132Z,83.21
2023-05-18T01:02:21.963Z,83.69
2023-05-18T01:04:48.670Z,86.36
2023-05-18T01:07:15.873Z,86.01
2023-05-18T01:09:42.271Z,84.87
2023-05-18T01:12:21.500Z,84.62
2023-05-18T01:14:53.234Z,84.32
2023-05-18T01:17:28.395Z,84.78
2023-05-18T01:19:57.772Z,85.84
2023-05-18T01:22:41.884Z,89.48
2023-05-18T01:25:16.804Z,87.46
2023-05-18T01:27:45.763Z,86.13
2023-05-18T01:30:14.944Z,87.78
2023-05-18T01:32:41.904Z,87.16
2023-05-18T01:35:08.699Z,92.75
2023-05-18T01:37:34.894Z,89.22
2023-05-18T01:40:01.230Z,91.03
2023-05-18T01:42:27.740Z,88.52
2023-05-18T01:44:57.958Z,89.51
2023-05-18T01:47:24.495Z,88.12
2023-05-18T01:50:03.111Z,89.07
2023-05-18T01:52:35.983Z,89.98
2023-05-18T01:55:03.764Z,88.72
2023-05-18T01:57:32.353Z,88.54
2023-05-18T02:00:03.945Z,90.07
2023-05-18T02:02:30.205Z,88.85
2023-05-18T02:04:56.388Z,88.75
2023-05-18T02:07:22.538Z,89.10
2023-05-18T02:09:48.962Z,91.58
2023-05-18T02:12:15.066Z,89.22
2023-05-18T02:14:42.660Z,90.81
2023-05-18T02:17:08.795Z,90.20
2023-05-18T02:19:37.360Z,89.99
2023-05-18T02:22:07.466Z,90.24
2023-05-18T02:24:34.030Z,90.49
2023-05-18T02:27:00.754Z,88.95
2023-05-18T02:29:27.057Z,88.40
2023-05-18T02:31:53.289Z,90.77
2023-05-18T02:34:21.264Z,90.90
2023-05-18T02:36:48.100Z,95.64
2023-05-18T02:39:14.220Z,95.61
2023-05-18T02:41:40.592Z,92.05
2023-05-18T02:44:06.784Z,92.35
2023-05-18T02:46:33.032Z,92.64
2023-05-18T02:48:59.387Z,95.15
2023-05-18T02:51:26.224Z,93.48
2023-05-18T02:53:52.338Z,94.95
2023-05-18T02:56:18.502Z,92.86
2023-05-18T02:58:44.626Z,91.80
2023-05-18T03:01:13.688Z,91.11
2023-05-18T03:03:41.605Z,91.80
2023-05-18T03:06:08.461Z,91.96
2023-05-18T03:08:36.420Z,92.18
2023-05-18T03:11:02.892Z,93.28
2023-05-18T03:13:29.022Z,92.47
2023-05-18T03:15:56.012Z,91.63
2023-05-18T03:18:24.435Z,93.08
2023-05-18T03:20:51.424Z,93.60
2023-05-18T03:23:18.645Z,92.99
2023-05-18T03:25:45.238Z,92.97
2023-05-18T03:28:11.361Z,94.05
2023-05-18T03:30:37.529Z,93.15
2023-05-18T03:33:03.909Z,92.64
2023-05-18T03:35:30.549Z,93.34
2023-05-18T03:37:56.875Z,94.91
2023-05-18T03:40:24.251Z,93.75
2023-05-18T03:42:50.353Z,95.34
2023-05-18T03:45:17.164Z,95.17
2023-05-18T03:47:43.379Z,95.57
2023-05-18T03:50:10.149Z,94.85
2023-05-18T03:52:36.656Z,95.54
2023-05-18T03:55:03.698Z,96.21
2023-05-18T03:57:31.089Z,96.64
2023-05-18T03:59:57.553Z,96.52
2023-05-18T04:02:24.557Z,96.96
2023-05-18T04:04:53.265Z,96.82
2023-05-18T04:07:23.561Z,98.68
2023-05-18T04:09:54.353Z,98.35
2023-05-18T04:12:20.465Z,97.41
2023-05-18T04:14:48.883Z,97.20
2023-05-18T04:17:21.474Z,96.75
2023-05-18T04:19:48.656Z,97.47
2023-05-18T04:22:15.622Z,97.21
2023-05-18T04:24:42.279Z,97.26
2023-05-18T04:27:08.732Z,97.94
2023-05-18T04:29:38.465Z,96.94
2023-05-18T04:32:08.120Z,96.80
2023-05-18T04:34:35.172Z,97.89
2023-05-18T04:37:04.793Z,97.86
2023-05-18T04:39:32.230Z,98.64
2023-05-18T04:41:58.388Z,98.09
2023-05-18T04:44:26.784Z,96.84
2023-05-18T04:46:53.875Z,98.28
2023-05-18T04:49:25.368Z,97.52
2023-05-18T04:51:55.214Z,96.56
2023-05-18T04:54:25.369Z,98.50
2023-05-18T04:56:52.190Z,96.89
2023-05-18T04:59:18.726Z,95.88
2023-05-18T05:01:45.618Z,96.29
2023-05-18T05:04:12.456Z,95.56
2023-05-18T05:06:38.588Z,96.00
2023-05-18T05:09:04.806Z,94.53
2023-05-18T05:11:30.996Z,94.71
2023-05-18T05:13:57.170Z,93.84
2023-05-18T05:16:23.325Z,93.91
2023-05-18T05:18:49.475Z,92.02
2023-05-18T05:21:15.624Z,96.89
2023-05-18T05:23:41.768Z,95.71
2023-05-18T05:26:07.879Z,92.97
2023-05-18T05:28:34.041Z,91.64
2023-05-18T05:31:00.211Z,91.30
2023-05-18T05:33:26.423Z,93.03
2023-05-18T05:35:52.678Z,90.62
2023-05-18T05:38:18.782Z,90.92
2023-05-18T05:40:44.901Z,93.04
2023-05-18T05:43:11.014Z,90.42
2023-05-18T05:45:38.104Z,90.60
2023-05-18T05:48:04.499Z,91.43
2023-05-18T05:50:31.597Z,89.79
2023-05-18T05:52:57.732Z,86.79
2023-05-18T05:55:23.917Z,91.74
2023-05-18T05:57:50.135Z,90.68
2023-05-18T06:00:16.614Z,90.56
2023-05-18T06:02:42.856Z,88.38
2023-05-18T06:05:09.197Z,94.52
2023-05-18T06:07:35.867Z,95.37
2023-05-18T06:10:02.922Z,90.37
2023-05-18T06:12:29.059Z,87.14
2023-05-18T06:14:58.551Z,93.59
2023-05-18T06:17:25.727Z,92.37
2023-05-18T06:19:52.352Z,87.03
2023-05-18T06:22:18.549Z,84.97
2023-05-18T06:24:44.738Z,90.27
2023-05-18T06:27:10.882Z,89.18
2023-05-18T06:29:37.074Z,90.73
2023-05-18T06:32:03.721Z,86.62
2023-05-18T06:34:30.052Z,88.22
2023-05-18T06:36:56.248Z,91.38
2023-05-18T06:39:22.357Z,90.22
2023-05-18T06:41:50.975Z,91.54
2023-05-18T06:44:17.205Z,91.67
2023-05-18T06:46:43.402Z,91.93
2023-05-18T06:49:09.512Z,92.62
2023-05-18T06:51:36.404Z,87.07
2023-05-18T06:54:02.547Z,88.62
2023-05-18T06:56:28.862Z,93.35
2023-05-18T06:58:55.425Z,88.99
2023-05-18T07:01:21.549Z,91.37
2023-05-18T07:03:47.883Z,87.84
2023-05-18T07:06:14.024Z,91.24
2023-05-18T07:08:40.415Z,93.75
2023-05-18T07:11:06.642Z,82.53
2023-05-18T07:13:32.922Z,85.35
2023-05-18T07:15:59.106Z,82.27
2023-05-18T07:18:25.858Z,80.67
2023-05-18T07:20:52.015Z,82.33
2023-05-18T07:23:18.328Z,84.94
2023-05-18T07:25:44.676Z,86.97
2023-05-18T07:28:10.896Z,86.32
2023-05-18T07:30:37.186Z,80.79
2023-05-18T07:33:03.768Z,77.66
2023-05-18T07:35:30.411Z,81.15
2023-05-18T07:37:56.801Z,78.54
2023-05-18T07:40:22.995Z,76.49
2023-05-18T07:42:49.301Z,76.40
2023-05-18T07:45:15.501Z,75.52
2023-05-18T07:47:41.708Z,73.84
2023-05-18T07:50:08.446Z,70.26
2023-05-18T07:52:34.858Z,70.68
2023-05-18T07:55:01.101Z,72.62
2023-05-18T07:57:27.420Z,71.58
2023-05-18T07:59:53.740Z,72.15
2023-05-18T08:02:20.150Z,68.48
2023-05-18T08:04:46.991Z,69.89
2023-05-18T08:07:13.938Z,72.92
2023-05-18T08:09:40.273Z,68.93
2023-05-18T08:12:07.254Z,72.29
2023-05-18T08:14:33.402Z,68.80
2023-05-18T08:16:59.611Z,73.77
2023-05-18T08:19:26.008Z,71.47
2023-05-18T08:21:52.198Z,67.17
2023-05-18T08:24:18.316Z,70.44
2023-05-18T08:26:44.445Z,66.26
2023-05-18T08:29:10.602Z,64.08
2023-05-18T08:31:37.755Z,65.21
2023-05-18T08:34:05.492Z,65.34
2023-05-18T08:36:33.567Z,65.18
2023-05-18T08:38:59.875Z,64.54
2023-05-18T08:41:30.079Z,65.43
2023-05-18T08:44:20.172Z,60.12
2023-05-18T08:46:50.338Z,58.54
2023-05-18T08:49:18.675Z,60.61
2023-05-18T08:51:47.094Z,61.02
2023-05-18T08:54:19.253Z,62.60
2023-05-18T08:56:45.872Z,62.44
2023-05-18T08:59:12.538Z,59.33
2023-05-18T09:01:38.809Z,61.90
2023-05-18T09:04:05.237Z,59.21
2023-05-18T09:06:33.216Z,58.66
2023-05-18T09:09:03.688Z,58.39
2023-05-18T09:11:32.381Z,56.36
2023-05-18T09:13:59.253Z,60.09
2023-05-18T09:16:25.980Z,58.04
2023-05-18T09:18:52.977Z,59.33
2023-05-18T09:21:19.182Z,54.60
2023-05-18T09:23:45.359Z,55.32
2023-05-18T09:26:12.649Z,55.20
2023-05-18T09:28:41.112Z,55.69
2023-05-18T09:31:11.785Z,53.60
2023-05-18T09:33:39.345Z,57.39
2023-05-18T09:36:06.878Z,57.61
2023-05-18T09:38:37.632Z,54.60
2023-05-18T09:41:03.796Z,57.24
2023-05-18T09:43:30.427Z,55.23
2023-05-18T09:45:56.542Z,54.25
2023-05-18T09:48:24.858Z,51.96
2023-05-18T09:50:51.497Z,51.73
2023-05-18T09:53:18.069Z,54.78
2023-05-18T09:55:48.296Z,55.13
2023-05-18T09:58:15.103Z,53.13
2023-05-18T10:00:43.302Z,51.38
2023-05-18T10:03:32.409Z,55.49
2023-05-18T10:06:06.049Z,54.28
2023-05-18T10:08:33.271Z,51.52
2023-05-18T10:10:59.695Z,53.43
2023-05-18T10:13:27.723Z,51.89
2023-05-18T10:15:58.596Z,53.03
2023-05-18T10:18:29.250Z,51.49
2023-05-18T10:20:59.864Z,53.65
2023-05-18T10:23:30.267Z,54.25
2023-05-18T10:25:57.036Z,52.24
2023-05-18T10:28:28.097Z,53.53
2023-05-18T10:30:56.329Z,54.95
2023-05-18T10:33:29.507Z,52.61
2023-05-18T10:35:57.085Z,52.01
2023-05-18T10:38:27.317Z,49.22
2023-05-18T10:40:58.092Z,48.89
2023-05-18T10:43:26.774Z,49.37
2023-05-18T10:45:57.980Z,50.60
2023-05-18T10:48:25.141Z,48.05
2023-05-18T10:50:54.002Z,50.16
2023-05-18T10:53:22.576Z,49.79
2023-05-18T10:55:49.725Z,49.70
2023-05-18T10:58:17.822Z,50.56
2023-05-18T11:00:48.850Z,50.96
2023-05-18T11:03:16.662Z,50.43
2023-05-18T11:05:43.300Z,49.51
2023-05-18T11:08:09.663Z,49.01
2023-05-18T11:10:40.636Z,47.61
2023-05-18T11:13:07.465Z,46.50
2023-05-18T11:16:01.847Z,47.51
2023-05-18T11:18:51.137Z,46.61
2023-05-18T11:21:24.437Z,48.08
2023-05-18T11:24:19.083Z,46.95
2023-05-18T11:26:50.846Z,48.35
2023-05-18T11:29:17.893Z,47.78
2023-05-18T11:31:51.272Z,49.57
2023-05-18T11:34:39.174Z,49.83
2023-05-18T11:37:09.201Z,48.38
2023-05-18T11:39:37.656Z,50.27
2023-05-18T11:42:10.212Z,49.34
2023-05-18T11:44:36.434Z,49.25
2023-05-18T11:47:04.380Z,48.64
2023-05-18T11:49:32.956Z,48.00
2023-05-18T11:52:17.288Z,47.91
2023-05-18T11:54:49.954Z,46.28
2023-05-18T11:57:17.079Z,47.62
2023-05-18T11:59:47.419Z,49.27
2023-05-18T12:02:22.131Z,48.56
2023-05-18T12:04:51.005Z,47.38
2023-05-18T12:07:18.929Z,47.78
2023-05-18T12:09:46.444Z,46.79
2023-05-18T12:12:16.557Z,46.26
2023-05-18T12:14:44.631Z,45.75
2023-05-18T12:17:10.995Z,44.90
2023-05-18T12:19:48.082Z,48.15
2023-05-18T12:22:14.505Z,47.78
2023-05-18T12:24:42.421Z,46.50
2023-05-18T12:27:10.796Z,46.25
2023-05-18T12:29:38.075Z,46.29
2023-05-18T12:32:06.225Z,45.69
2023-05-18T12:34:32.764Z,45.72
2023-05-18T12:36:59.064Z,45.90
2023-05-18T12:39:27.830Z,46.26
2023-05-18T12:42:07.968Z,46.02
2023-05-18T12:44:34.097Z,45.78
2023-05-18T12:47:01.131Z,47.37
2023-05-18T12:49:27.352Z,48.52
2023-05-18T12:51:56.638Z,46.56
2023-05-18T12:54:32.231Z,44.86
2023-05-18T12:57:02.334Z,44.48
2023-05-18T12:59:28.766Z,44.57
2023-05-18T13:01:55.918Z,42.24
2023-05-18T13:04:22.411Z,42.34
2023-05-18T13:06:48.617Z,42.64
2023-05-18T13:09:15.618Z,42.58
2023-05-18T13:11:56.983Z,42.93
2023-05-18T13:14:32.321Z,44.75
2023-05-18T13:16:58.489Z,46.49
2023-05-18T13:19:25.488Z,45.44
2023-05-18T13:21:56.016Z,44.81
2023-05-18T13:24:22.183Z,44.14
2023-05-18T13:26:48.429Z,45.10
2023-05-18T13:29:14.553Z,44.54
2023-05-18T13:31:40.873Z,43.59
2023-05-18T13:34:07.072Z,44.42
2023-05-18T13:36:35.304Z,43.44
2023-05-18T13:39:04.854Z,45.61
2023-05-18T13:41:31.040Z,45.19
2023-05-18T13:43:57.128Z,45.54
2023-05-18T13:46:23.429Z,45.71
2023-05-18T13:48:49.586Z,45.31
2023-05-18T13:51:15.796Z,44.90
2023-05-18T13:53:41.918Z,44.89
2023-05-18T13:56:08.097Z,44.81
2023-05-18T13:58:35.319Z,43.46
2023-05-18T14:01:03.377Z,43.07
2023-05-18T14:03:30.456Z,43.59
2023-05-18T14:05:56.687Z,43.83
2023-05-18T14:08:22.804Z,41.37
2023-05-18T14:10:48.934Z,40.89
2023-05-18T14:13:15.119Z,42.26
2023-05-18T14:15:41.242Z,42.59
2023-05-18T14:18:07.466Z,43.56
2023-05-18T14:20:35.778Z,43.12
2023-05-18T14:23:04.223Z,41.51
2023-05-18T14:25:30.868Z,42.08
2023-05-18T14:27:56.960Z,43.30
2023-05-18T14:30:23.106Z,42.79
2023-05-18T14:32:49.275Z,41.80
2023-05-18T14:35:15.481Z,42.42
2023-05-18T14:37:41.585Z,42.28
2023-05-18T14:40:08.172Z,41.53
2023-05-18T14:42:35.780Z,41.53
2023-05-18T14:45:02.091Z,42.34
2023-05-18T14:47:28.339Z,40.76
2023-05-18T14:49:54.551Z,42.22
2023-05-18T14:52:20.693Z,42.33
2023-05-18T14:54:47.258Z,44.59
2023-05-18T14:57:13.423Z,43.99
2023-05-18T14:59:40.096Z,44.05
2023-05-18T15:02:07.382Z,44.87
2023-05-18T15:04:33.598Z,44.79
2023-05-18T15:07:00.313Z,43.93
2023-05-18T15:09:27.078Z,43.51
2023-05-18T15:11:53.283Z,42.83
2023-05-18T15:14:19.450Z,41.81
2023-05-18T15:16:45.668Z,43.33
2023-05-18T15:19:11.846Z,43.54
2023-05-18T15:21:38.299Z,42.73
2023-05-18T15:24:05.065Z,43.76
2023-05-18T15:26:31.259Z,44.03
2023-05-18T15:28:57.439Z,43.05
2023-05-18T15:31:23.672Z,44.50
2023-05-18T15:33:49.885Z,43.92
2023-05-18T15:36:16.095Z,43.99
2023-05-18T15:38:42.288Z,44.24
2023-05-18T15:41:08.465Z,44.80
2023-05-18T15:43:35.935Z,43.81
2023-05-18T15:46:02.191Z,43.01
2023-05-18T15:48:29.015Z,44.74
2023-05-18T15:50:55.103Z,43.09
2023-05-18T15:53:21.285Z,43.03
2023-05-18T15:55:50.072Z,44.02
2023-05-18T15:58:16.368Z,42.62
2023-05-18T16:00:42.589Z,42.88
2023-05-18T16:03:08.810Z,43.78
2023-05-18T16:05:35.107Z,44.21
2023-05-18T16:08:01.320Z,44.83
2023-05-18T16:10:27.607Z,43.60
2023-05-18T16:12:53.753Z,43.77
2023-05-18T16:15:23.540Z,45.56
2023-05-18T16:17:49.961Z,46.19
2023-05-18T16:20:17.078Z,47.23
2023-05-18T16:22:44.577Z,46.93
2023-05-18T16:25:10.736Z,46.42
2023-05-18T16:27:36.859Z,47.79
2023-05-18T16:30:03.241Z,47.46
2023-05-18T16:32:30.911Z,46.70
2023-05-18T16:34:57.258Z,47.60
2023-05-18T16:37:23.374Z,47.12
2023-05-18T16:39:49.500Z,48.08
2023-05-18T16:42:17.589Z,49.10
2023-05-18T16:44:43.717Z,48.68
2023-05-18T16:47:10.020Z,48.88
2023-05-18T16:49:36.149Z,48.75
2023-05-18T16:52:02.901Z,50.42
2023-05-18T16:54:29.024Z,49.62
2023-05-18T16:56:55.148Z,51.04
2023-05-18T16:59:22.153Z,50.86
2023-05-18T17:01:48.440Z,51.07
2023-05-18T17:04:14.765Z,51.57
2023-05-18T17:06:41.354Z,52.53
2023-05-18T17:09:07.613Z,52.86
2023-05-18T17:11:33.948Z,52.00
2023-05-18T17:14:00.879Z,52.39
2023-05-18T17:16:27.653Z,52.01
2023-05-18T17:18:54.321Z,51.96
2023-05-18T17:21:20.644Z,51.27
2023-05-18T17:23:46.826Z,51.30
2023-05-18T17:26:13.004Z,53.86
2023-05-18T17:28:39.207Z,54.24
2023-05-18T17:31:06.043Z,53.62
2023-05-18T17:33:32.168Z,56.52
2023-05-18T17:35:58.431Z,57.87
2023-05-18T17:38:24.560Z,57.66
2023-05-18T17:40:50.730Z,56.38
2023-05-18T17:43:16.916Z,57.87
2023-05-18T17:45:43.065Z,57.64
2023-05-18T17:48:09.357Z,59.28
2023-05-18T17:50:36.967Z,60.17
2023-05-18T17:53:04.125Z,59.57
2023-05-18T17:55:30.275Z,59.18
2023-05-18T17:57:58.877Z,61.71
2023-05-18T18:00:25.103Z,61.37
2023-05-18T18:02:51.308Z,61.19
2023-05-18T18:05:17.606Z,62.46
2023-05-18T18:07:43.732Z,61.69
2023-05-18T18:10:10.488Z,61.26
2023-05-18T18:12:36.724Z,60.47
2023-05-18T18:15:03.058Z,62.92
2023-05-18T18:17:29.344Z,62.48
2023-05-18T18:19:55.508Z,63.43
2023-05-18T18:22:21.775Z,60.88
2023-05-18T18:24:47.924Z,62.38
2023-05-18T18:27:14.156Z,61.40
2023-05-18T18:29:40.289Z,62.31
2023-05-18T18:32:07.693Z,61.54
2023-05-18T18:34:33.843Z,60.18
2023-05-18T18:36:59.972Z,59.96
2023-05-18T18:39:26.245Z,61.55
2023-05-18T18:41:52.603Z,62.85
2023-05-18T18:44:18.741Z,65.04
2023-05-18T18:46:45.868Z,64.12
2023-05-18T18:49:11.998Z,62.54
2023-05-18T18:51:38.121Z,63.53
2023-05-18T18:54:05.065Z,61.93
2023-05-18T18:56:31.365Z,61.56
2023-05-18T18:58:57.446Z,61.47
2023-05-18T19:01:23.614Z,63.58
2023-05-18T19:03:51.953Z,62.41
2023-05-18T19:06:18.095Z,61.18
2023-05-18T19:08:44.213Z,61.24
2023-05-18T19:11:10.320Z,62.73
2023-05-18T19:13:36.517Z,63.60
2023-05-18T19:16:02.775Z,64.48
2023-05-18T19:18:28.928Z,63.75
2023-05-18T19:20:55.193Z,64.02
2023-05-18T19:23:21.277Z,62.76
2023-05-18T19:25:47.397Z,64.31
2023-05-18T19:28:13.576Z,61.74
2023-05-18T19:30:39.774Z,62.74
2023-05-18T19:33:06.003Z,63.95
2023-05-18T19:35:32.449Z,63.92
2023-05-18T19:38:00.445Z,63.01
2023-05-18T19:40:28.196Z,65.33
2023-05-18T19:42:54.876Z,66.32
2023-05-18T19:45:21.329Z,63.47
2023-05-18T19:47:47.478Z,63.32
2023-05-18T19:50:13.612Z,64.83
2023-05-18T19:52:40.568Z,66.66
2023-05-18T19:55:06.805Z,63.41
2023-05-18T19:57:32.980Z,64.22
2023-05-18T19:59:59.191Z,64.14
2023-05-18T20:02:25.650Z,68.99
2023-05-18T20:04:52.947Z,65.65
2023-05-18T20:07:19.833Z,64.21
2023-05-18T20:09:46.956Z,65.12
2023-05-18T20:12:13.125Z,65.90
2023-05-18T20:14:39.302Z,63.64
2023-05-18T20:17:05.941Z,63.82
2023-05-18T20:19:32.119Z,62.71
2023-05-18T20:21:58.278Z,62.15
2023-05-18T20:24:24.433Z,64.68
2023-05-18T20:26:50.593Z,62.79
2023-05-18T20:29:16.791Z,63.56
2023-05-18T20:31:42.978Z,63.43
2023-05-18T20:34:09.085Z,66.38
2023-05-18T20:36:35.199Z,64.28
2023-05-18T20:39:01.740Z,63.23
2023-05-18T20:41:28.931Z,62.91
2023-05-18T20:43:56.154Z,62.85
2023-05-18T20:46:23.998Z,63.52
2023-05-18T20:48:51.885Z,62.95
2023-05-18T20:51:20.294Z,62.38
2023-05-18T20:53:48.021Z,62.28
2023-05-18T20:56:14.978Z,62.28
2023-05-18T20:58:41.958Z,62.42
2023-05-18T21:01:08.175Z,64.17
2023-05-18T21:03:34.427Z,62.85
2023-05-18T21:06:01.773Z,65.90
2023-05-18T21:08:27.887Z,70.50
2023-05-18T21:10:54.537Z,75.37
2023-05-18T21:13:20.648Z,82.11
2023-05-18T21:15:46.837Z,89.81
2023-05-18T21:18:13.142Z,85.63
2023-05-18T21:20:39.282Z,80.48
2023-05-18T21:23:05.492Z,83.07
2023-05-18T21:25:31.622Z,76.46
2023-05-18T21:27:57.756Z,80.25
2023-05-18T21:30:23.865Z,77.41
2023-05-18T21:32:51.950Z,76.16
2023-05-18T21:35:18.217Z,85.69
2023-05-18T21:37:44.395Z,82.81
2023-05-18T21:40:10.588Z,80.27
2023-05-18T21:42:40.569Z,81.24
2023-05-18T21:45:07.227Z,76.49
2023-05-18T21:47:33.409Z,81.26
2023-05-18T21:49:59.726Z,77.98
2023-05-18T21:52:25.820Z,78.30
2023-05-18T21:54:51.925Z,73.76
2023-05-18T21:57:18.312Z,72.44
2023-05-18T21:59:44.485Z,72.96
2023-05-18T22:02:10.601Z,71.19
2023-05-18T22:04:36.790Z,73.65
2023-05-18T22:07:03.200Z,72.61
2023-05-18T22:09:29.372Z,71.20
2023-05-18T22:11:55.526Z,70.69
2023-05-18T22:14:21.674Z,70.66
2023-05-18T22:16:47.867Z,69.98
2023-05-18T22:19:14.175Z,71.46
2023-05-18T22:21:41.123Z,69.98
2023-05-18T22:24:07.286Z,69.90
2023-05-18T22:26:33.444Z,79.11
2023-05-18T22:28:59.875Z,73.04
2023-05-18T22:31:26.192Z,74.81
2023-05-18T22:33:53.918Z,72.80
2023-05-18T22:36:20.923Z,80.94
2023-05-18T22:38:48.519Z,76.81
2023-05-18T22:41:15.825Z,81.66
2023-05-18T22:43:41.902Z,78.38
2023-05-18T22:46:08.100Z,79.65
2023-05-18T22:48:34.552Z,76.24
2023-05-18T22:51:00.760Z,78.22
2023-05-18T22:53:26.908Z,76.79
2023-05-18T22:55:53.085Z,73.48
2023-05-18T22:58:19.210Z,76.57
2023-05-18T23:00:45.333Z,80.41
2023-05-18T23:03:12.524Z,77.45
2023-05-18T23:05:41.277Z,79.16
2023-05-18T23:08:07.618Z,89.59
2023-05-18T23:10:34.179Z,86.83
2023-05-18T23:13:00.765Z,86.47
2023-05-18T23:15:27.107Z,94.61
2023-05-18T23:17:56.063Z,95.53
2023-05-18T23:20:22.263Z,93.33
2023-05-18T23:22:48.596Z,96.33
2023-05-18T23:25:14.800Z,94.93
2023-05-18T23:27:40.922Z,93.77
2023-05-18T23:30:07.444Z,91.49
2023-05-18T23:32:34.712Z,95.81
2023-05-18T23:35:03.691Z,92.18
2023-05-18T23:37:34.809Z,93.33
2023-05-18T23:40:04.198Z,98.07
2023-05-18T23:42:30.555Z,100.00
2023-05-18T23:44:56.981Z,94.60
2023-05-18T23:47:23.260Z,96.02
2023-05-18T23:49:49.995Z,91.27
2023-05-18T23:52:20.142Z,96.86
2023-05-18T23:54:49.675Z,100.00
2023-05-18T23:57:16.038Z,95.12
2023-05-18T23:59:42.425Z,97.97
